createdAt,value
2018-12-08T00:00:32.058Z,12.77
2018-12-08T00:03:00.739Z,19.87
2018-12-08T00:05:29.417Z,18.97
2018-12-08T00:07:58.093Z,17.90
2018-12-08T00:10:26.745Z,14.53
2018-12-08T00:12:55.439Z,11.77
2018-12-08T00:15:24.076Z,13.63
2018-12-08T00:17:52.972Z,19.30
2018-12-08T00:20:21.675Z,11.27
2018-12-08T00:22:50.233Z,11.63
2018-12-08T00:25:19.439Z,14.43
2018-12-08T00:27:48.012Z,10.63
2018-12-08T00:30:27.883Z,14.10
2018-12-08T00:32:56.486Z,17.23
2018-12-08T00:35:24.972Z,14.40
2018-12-08T00:37:53.524Z,10.67
2018-12-08T00:40:22.073Z,10.50
2018-12-08T00:42:50.553Z,13.63
2018-12-08T00:45:19.025Z,12.57
2018-12-08T00:47:47.528Z,15.83
2018-12-08T00:50:16.309Z,10.40
2018-12-08T00:52:45.240Z,11.90
2018-12-08T00:55:13.839Z,10.27
2018-12-08T00:57:43.045Z,16.67
2018-12-08T01:00:12.211Z,20.23
2018-12-08T01:02:41.084Z,19.90
2018-12-08T01:05:09.653Z,15.23
2018-12-08T01:07:38.624Z,11.43
2018-12-08T01:10:07.617Z,11.47
2018-12-08T01:12:36.120Z,11.33
2018-12-08T01:15:05.135Z,10.40
2018-12-08T01:17:33.614Z,10.33
2018-12-08T01:20:02.168Z,10.30
2018-12-08T01:22:30.658Z,11.00
2018-12-08T01:24:59.160Z,9.00
2018-12-08T01:27:27.615Z,9.40
2018-12-08T01:29:56.094Z,12.03
2018-12-08T01:32:24.500Z,6.97
2018-12-08T01:34:53.010Z,11.93
2018-12-08T01:37:21.527Z,11.00
2018-12-08T01:39:50.015Z,8.37
2018-12-08T01:42:18.637Z,8.37
2018-12-08T01:44:47.314Z,9.13
2018-12-08T01:47:16.236Z,9.77
2018-12-08T01:49:44.720Z,8.60
2018-12-08T01:52:13.187Z,9.97
2018-12-08T01:54:41.625Z,12.53
2018-12-08T01:57:10.107Z,10.33
2018-12-08T01:59:38.608Z,12.53
2018-12-08T02:02:07.068Z,12.17
2018-12-08T02:04:36.023Z,11.40
2018-12-08T02:07:04.732Z,11.10
2018-12-08T02:09:33.203Z,9.03
2018-12-08T02:12:01.807Z,7.13
2018-12-08T02:14:30.421Z,13.47
2018-12-08T02:16:58.994Z,10.80
2018-12-08T02:19:27.641Z,9.43
2018-12-08T02:21:56.133Z,10.37
2018-12-08T02:24:24.707Z,10.57
2018-12-08T02:26:53.144Z,14.07
2018-12-08T02:29:21.658Z,12.10
2018-12-08T02:31:50.221Z,8.80
2018-12-08T02:34:18.948Z,10.33
2018-12-08T02:36:47.617Z,9.13
2018-12-08T02:39:16.247Z,12.40
2018-12-08T02:41:44.738Z,8.20
2018-12-08T02:44:13.217Z,13.23
2018-12-08T02:46:42.208Z,8.23
2018-12-08T02:49:10.801Z,12.70
2018-12-08T02:51:39.431Z,12.07
2018-12-08T02:54:08.057Z,9.20
2018-12-08T02:56:36.567Z,7.53
2018-12-08T02:59:05.204Z,12.97
2018-12-08T03:01:33.817Z,13.40
2018-12-08T03:04:02.739Z,11.17
2018-12-08T03:06:31.316Z,16.13
2018-12-08T03:09:00.461Z,8.80
2018-12-08T03:11:29.090Z,11.17
2018-12-08T03:13:57.756Z,9.43
2018-12-08T03:16:26.289Z,11.83
2018-12-08T03:18:55.040Z,12.63
2018-12-08T03:21:23.705Z,9.80
2018-12-08T03:23:52.191Z,21.27
2018-12-08T03:26:20.967Z,10.53
2018-12-08T03:28:49.907Z,13.47
2018-12-08T03:31:18.705Z,12.13
2018-12-08T03:33:47.151Z,8.57
2018-12-08T03:36:15.761Z,6.83
2018-12-08T03:38:44.313Z,10.87
2018-12-08T03:41:13.003Z,12.17
2018-12-08T03:43:41.546Z,12.67
2018-12-08T03:46:10.095Z,11.37
2018-12-08T03:48:38.586Z,10.70
2018-12-08T03:51:07.347Z,8.27
2018-12-08T03:53:36.015Z,12.20
2018-12-08T03:56:04.690Z,12.33
2018-12-08T03:58:33.383Z,8.70
2018-12-08T04:01:01.987Z,12.00
2018-12-08T04:03:31.344Z,8.20
2018-12-08T04:05:59.843Z,14.23
2018-12-08T04:08:28.327Z,7.30
2018-12-08T04:10:56.839Z,16.57
2018-12-08T04:13:26.114Z,10.33
2018-12-08T04:15:54.576Z,10.10
2018-12-08T04:18:23.283Z,14.93
2018-12-08T04:20:51.867Z,11.73
2018-12-08T04:23:20.360Z,13.13
2018-12-08T04:25:48.948Z,13.70
2018-12-08T04:28:17.570Z,8.87
2018-12-08T04:30:46.042Z,9.00
2018-12-08T04:33:14.509Z,13.70
2018-12-08T04:35:42.984Z,9.17
2018-12-08T04:38:11.865Z,5.77
2018-12-08T04:40:40.553Z,8.47
2018-12-08T04:43:08.986Z,13.47
2018-12-08T04:45:37.617Z,7.63
2018-12-08T04:48:06.059Z,8.47
2018-12-08T04:50:34.585Z,7.43
2018-12-08T04:53:04.055Z,7.37
2018-12-08T04:55:32.566Z,7.13
2018-12-08T04:58:01.469Z,13.37
2018-12-08T05:00:29.978Z,6.27
2018-12-08T05:02:58.568Z,11.83
2018-12-08T05:05:27.079Z,8.83
2018-12-08T05:07:55.814Z,7.03
2018-12-08T05:10:24.268Z,9.30
2018-12-08T05:12:52.882Z,10.07
2018-12-08T05:15:22.042Z,8.57
2018-12-08T05:17:50.539Z,7.40
2018-12-08T05:20:19.087Z,7.43
2018-12-08T05:22:47.723Z,8.43
2018-12-08T05:25:16.205Z,4.87
2018-12-08T05:27:44.886Z,6.93
2018-12-08T05:30:13.401Z,9.07
2018-12-08T05:32:41.883Z,8.17
2018-12-08T05:35:10.415Z,11.47
2018-12-08T05:37:39.027Z,7.97
2018-12-08T05:40:07.557Z,8.93
2018-12-08T05:42:36.039Z,6.60
2018-12-08T05:45:04.880Z,5.20
2018-12-08T05:47:33.482Z,7.87
2018-12-08T05:50:02.394Z,9.23
2018-12-08T05:52:30.887Z,8.07
2018-12-08T05:54:59.435Z,7.53
2018-12-08T05:57:28.016Z,4.93
2018-12-08T05:59:56.619Z,7.17
2018-12-08T06:02:25.119Z,7.93
2018-12-08T06:04:53.616Z,9.73
2018-12-08T06:07:22.603Z,5.83
2018-12-08T06:09:51.171Z,7.90
2018-12-08T06:12:19.892Z,5.90
2018-12-08T06:14:48.763Z,5.80
2018-12-08T06:17:17.600Z,7.50
2018-12-08T06:19:46.089Z,6.43
2018-12-08T06:22:14.673Z,6.47
2018-12-08T06:24:43.242Z,4.47
2018-12-08T06:27:19.500Z,7.00
2018-12-08T06:29:48.298Z,7.13
2018-12-08T06:32:17.142Z,7.60
2018-12-08T06:34:46.025Z,7.50
2018-12-08T06:37:14.785Z,5.43
2018-12-08T06:39:43.501Z,5.23
2018-12-08T06:42:12.007Z,5.57
2018-12-08T06:44:41.008Z,7.23
2018-12-08T06:47:09.771Z,5.73
2018-12-08T06:49:39.169Z,5.80
2018-12-08T06:52:07.732Z,6.30
2018-12-08T06:54:36.291Z,5.17
2018-12-08T06:57:05.176Z,4.93
2018-12-08T06:59:33.745Z,7.37
2018-12-08T07:02:02.248Z,3.03
2018-12-08T07:04:30.829Z,4.87
2018-12-08T07:06:59.405Z,7.37
2018-12-08T07:09:27.894Z,7.93
2018-12-08T07:11:56.372Z,5.53
2018-12-08T07:14:25.041Z,4.87
2018-12-08T07:16:53.642Z,6.37
2018-12-08T07:19:22.067Z,6.07
2018-12-08T07:21:51.186Z,4.93
2018-12-08T07:24:19.683Z,9.43
2018-12-08T07:26:48.355Z,8.37
2018-12-08T07:29:16.826Z,8.40
2018-12-08T07:31:45.472Z,9.23
2018-12-08T07:34:14.568Z,5.93
2018-12-08T07:36:43.223Z,6.30
2018-12-08T07:39:12.347Z,6.20
2018-12-08T07:41:41.123Z,10.53
2018-12-08T07:44:09.717Z,4.90
2018-12-08T07:46:38.199Z,7.30
2018-12-08T07:49:06.750Z,10.17
2018-12-08T07:51:35.335Z,8.13
2018-12-08T07:54:03.963Z,9.23
2018-12-08T07:56:33.082Z,9.23
2018-12-08T07:59:01.930Z,6.33
2018-12-08T08:01:30.375Z,8.57
2018-12-08T08:03:58.973Z,7.57
2018-12-08T08:06:27.554Z,3.57
2018-12-08T08:08:56.123Z,5.47
2018-12-08T08:11:24.609Z,8.27
2018-12-08T08:13:53.177Z,4.90
2018-12-08T08:16:21.637Z,7.10
2018-12-08T08:18:50.110Z,7.03
2018-12-08T08:21:18.997Z,6.30
2018-12-08T08:23:47.667Z,7.73
2018-12-08T08:26:16.417Z,5.33
2018-12-08T08:28:44.918Z,4.67
2018-12-08T08:31:13.489Z,7.37
2018-12-08T08:33:41.954Z,6.97
2018-12-08T08:36:10.570Z,6.27
2018-12-08T08:38:39.262Z,6.50
2018-12-08T08:41:07.915Z,11.00
2018-12-08T08:43:36.559Z,6.87
2018-12-08T08:46:05.171Z,9.07
2018-12-08T08:48:34.371Z,6.40
2018-12-08T08:51:03.580Z,10.03
2018-12-08T08:53:33.560Z,9.23
2018-12-08T08:56:02.617Z,6.77
2018-12-08T08:58:31.416Z,9.80
2018-12-08T09:01:00.247Z,8.57
2018-12-08T09:03:28.697Z,5.93
2018-12-08T09:05:57.972Z,5.40
2018-12-08T09:08:26.587Z,7.43
2018-12-08T09:10:55.283Z,9.47
2018-12-08T09:13:23.930Z,8.53
2018-12-08T09:15:52.417Z,7.93
2018-12-08T09:18:21.044Z,11.33
2018-12-08T09:20:49.591Z,7.43
2018-12-08T09:23:18.446Z,7.87
2018-12-08T09:25:47.056Z,9.07
2018-12-08T09:28:15.644Z,7.33
2018-12-08T09:30:44.267Z,7.77
2018-12-08T09:33:12.768Z,10.70
2018-12-08T09:35:41.444Z,8.07
2018-12-08T09:38:10.165Z,11.20
2018-12-08T09:40:38.894Z,9.03
2018-12-08T09:43:07.520Z,10.27
2018-12-08T09:45:41.732Z,8.87
2018-12-08T09:48:07.225Z,8.43
2018-12-08T09:50:36.095Z,9.20
2018-12-08T09:53:17.192Z,13.07
2018-12-08T09:55:45.699Z,8.27
2018-12-08T09:58:14.408Z,13.33
2018-12-08T10:00:42.892Z,7.37
2018-12-08T10:03:11.429Z,9.97
2018-12-08T10:05:40.159Z,11.77
2018-12-08T10:08:08.721Z,10.03
2018-12-08T10:10:37.396Z,8.73
2018-12-08T10:13:05.918Z,12.80
2018-12-08T10:15:34.504Z,13.70
2018-12-08T10:18:03.018Z,11.70
2018-12-08T10:20:31.628Z,14.50
2018-12-08T10:23:00.167Z,12.73
2018-12-08T10:25:28.637Z,14.37
2018-12-08T10:27:57.224Z,12.37
2018-12-08T10:30:25.827Z,12.40
2018-12-08T10:32:54.372Z,15.07
2018-12-08T10:35:23.111Z,15.53
2018-12-08T10:37:51.686Z,16.83
2018-12-08T10:40:20.279Z,14.87
2018-12-08T10:42:48.776Z,13.37
2018-12-08T10:45:17.272Z,19.20
2018-12-08T10:47:45.864Z,23.63
2018-12-08T10:50:14.475Z,17.47
2018-12-08T10:52:42.986Z,18.73
2018-12-08T10:55:11.451Z,14.07
2018-12-08T10:57:39.888Z,14.23
2018-12-08T11:00:13.387Z,15.47
2018-12-08T11:02:46.051Z,14.73
2018-12-08T11:05:14.599Z,16.33
2018-12-08T11:07:43.556Z,13.90
2018-12-08T11:10:12.147Z,11.77
2018-12-08T11:12:40.632Z,13.00
2018-12-08T11:15:09.094Z,23.27
2018-12-08T11:17:37.540Z,15.20
2018-12-08T11:20:06.678Z,15.47
2018-12-08T11:22:35.771Z,16.03
2018-12-08T11:25:04.849Z,17.57
2018-12-08T11:27:33.341Z,20.40
2018-12-08T11:30:01.843Z,14.60
2018-12-08T11:32:31.328Z,20.20
2018-12-08T11:35:00.311Z,18.30
2018-12-08T11:37:28.824Z,13.70
2018-12-08T11:39:57.332Z,15.17
2018-12-08T11:42:25.922Z,12.63
2018-12-08T11:44:54.527Z,17.67
2018-12-08T11:47:23.107Z,18.00
2018-12-08T11:49:51.692Z,23.43
2018-12-08T11:52:20.275Z,13.17
2018-12-08T11:54:48.782Z,13.47
2018-12-08T11:57:17.345Z,12.03
2018-12-08T11:59:45.856Z,10.10
2018-12-08T12:02:16.642Z,13.57
2018-12-08T12:04:45.453Z,12.93
2018-12-08T12:07:13.992Z,14.70
2018-12-08T12:09:42.681Z,14.40
2018-12-08T12:12:11.153Z,17.27
2018-12-08T12:14:44.114Z,18.63
2018-12-08T12:17:12.706Z,16.77
2018-12-08T12:19:41.234Z,14.13
2018-12-08T12:22:09.746Z,14.40
2018-12-08T12:24:38.237Z,15.27
2018-12-08T12:27:06.669Z,14.40
2018-12-08T12:29:35.136Z,14.47
2018-12-08T12:32:03.633Z,18.00
2018-12-08T12:34:32.187Z,13.57
2018-12-08T12:37:00.702Z,10.77
2018-12-08T12:39:29.216Z,14.23
2018-12-08T12:41:57.679Z,17.00
2018-12-08T12:44:26.364Z,19.23
2018-12-08T12:46:54.835Z,16.93
2018-12-08T12:49:23.983Z,13.60
2018-12-08T12:51:52.519Z,17.47
2018-12-08T12:54:21.110Z,13.00
2018-12-08T12:56:49.694Z,15.27
2018-12-08T12:59:18.181Z,11.17
2018-12-08T13:01:46.776Z,9.90
2018-12-08T13:04:15.291Z,14.40
2018-12-08T13:06:44.488Z,14.13
2018-12-08T13:09:13.150Z,18.83
2018-12-08T13:11:43.118Z,18.03
2018-12-08T13:14:13.214Z,16.03
2018-12-08T13:16:42.170Z,15.77
2018-12-08T13:19:10.679Z,19.07
2018-12-08T13:21:39.213Z,21.37
2018-12-08T13:24:07.721Z,21.97
2018-12-08T13:26:36.231Z,18.37
2018-12-08T13:29:05.193Z,13.53
2018-12-08T13:31:34.248Z,19.03
2018-12-08T13:34:12.785Z,13.67
2018-12-08T13:36:42.192Z,15.90
2018-12-08T13:39:10.720Z,13.00
2018-12-08T13:41:39.243Z,17.73
2018-12-08T13:44:07.744Z,21.40
2018-12-08T13:46:36.292Z,13.93
2018-12-08T13:49:04.791Z,14.97
2018-12-08T13:51:33.517Z,20.53
2018-12-08T13:54:05.545Z,15.30
2018-12-08T13:56:34.106Z,13.60
2018-12-08T13:59:03.376Z,13.10
2018-12-08T14:01:31.875Z,15.40
2018-12-08T14:04:01.128Z,14.60
2018-12-08T14:06:29.612Z,21.80
2018-12-08T14:08:58.115Z,17.27
2018-12-08T14:11:26.702Z,13.60
2018-12-08T14:13:55.188Z,21.50
2018-12-08T14:16:23.829Z,14.30
2018-12-08T14:18:52.347Z,15.60
2018-12-08T14:21:20.819Z,19.63
2018-12-08T14:23:50.504Z,12.57
2018-12-08T14:26:19.635Z,15.10
2018-12-08T14:28:48.129Z,12.40
2018-12-08T14:31:16.796Z,13.67
2018-12-08T14:33:45.880Z,14.43
2018-12-08T14:36:14.371Z,14.77
2018-12-08T14:38:42.857Z,17.80
2018-12-08T14:41:11.455Z,10.07
2018-12-08T14:43:39.912Z,16.10
2018-12-08T14:46:08.339Z,11.40
2018-12-08T14:48:36.778Z,11.80
2018-12-08T14:51:05.286Z,15.50
2018-12-08T14:53:33.723Z,13.83
2018-12-08T14:56:02.175Z,16.23
2018-12-08T14:58:30.617Z,15.97
2018-12-08T15:00:59.104Z,14.70
2018-12-08T15:03:27.573Z,9.07
2018-12-08T15:05:56.054Z,12.00
2018-12-08T15:08:25.171Z,14.40
2018-12-08T15:10:53.825Z,16.30
2018-12-08T15:13:23.071Z,20.10
2018-12-08T15:15:51.537Z,17.40
2018-12-08T15:18:20.026Z,15.03
2018-12-08T15:20:48.708Z,13.90
2018-12-08T15:23:17.597Z,14.83
2018-12-08T15:25:46.561Z,13.73
2018-12-08T15:28:15.099Z,22.43
2018-12-08T15:30:44.200Z,17.53
2018-12-08T15:33:12.775Z,22.63
2018-12-08T15:35:41.262Z,11.17
2018-12-08T15:38:09.875Z,16.27
2018-12-08T15:40:38.419Z,16.87
2018-12-08T15:43:07.615Z,14.57
2018-12-08T15:45:36.237Z,17.10
2018-12-08T15:48:04.695Z,19.20
2018-12-08T15:50:33.134Z,14.13
2018-12-08T15:53:01.723Z,21.23
2018-12-08T15:55:30.160Z,30.93
2018-12-08T15:57:58.691Z,21.23
2018-12-08T16:00:27.949Z,21.97
2018-12-08T16:02:56.400Z,21.20
2018-12-08T16:05:24.957Z,27.00
2018-12-08T16:07:53.609Z,21.13
2018-12-08T16:10:23.183Z,25.47
2018-12-08T16:12:51.763Z,32.40
2018-12-08T16:15:20.274Z,21.83
2018-12-08T16:17:48.769Z,22.77
2018-12-08T16:20:17.284Z,25.07
2018-12-08T16:22:45.803Z,26.47
2018-12-08T16:25:15.189Z,22.43
2018-12-08T16:27:43.794Z,31.20
2018-12-08T16:30:12.519Z,24.77
2018-12-08T16:32:41.086Z,23.03
2018-12-08T16:35:10.999Z,25.40
2018-12-08T16:37:39.899Z,27.00
2018-12-08T16:40:08.944Z,23.00
2018-12-08T16:42:37.533Z,20.23
2018-12-08T16:45:08.277Z,20.63
2018-12-08T16:47:36.867Z,22.50
2018-12-08T16:50:07.104Z,21.90
2018-12-08T16:52:35.686Z,22.90
2018-12-08T16:55:04.921Z,23.03
2018-12-08T16:57:33.710Z,18.17
2018-12-08T17:00:02.418Z,25.40
2018-12-08T17:02:30.936Z,21.37
2018-12-08T17:04:59.967Z,17.80
2018-12-08T17:07:29.061Z,22.40
2018-12-08T17:09:57.646Z,19.57
2018-12-08T17:12:26.281Z,16.83
2018-12-08T17:14:54.891Z,22.83
2018-12-08T17:17:23.391Z,26.90
2018-12-08T17:19:52.048Z,31.00
2018-12-08T17:22:20.674Z,20.23
2018-12-08T17:24:49.273Z,19.40
2018-12-08T17:27:17.862Z,15.83
2018-12-08T17:29:46.419Z,16.33
2018-12-08T17:32:15.084Z,13.93
2018-12-08T17:34:44.028Z,12.23
2018-12-08T17:37:12.810Z,11.80
2018-12-08T17:39:41.750Z,15.60
2018-12-08T17:42:10.457Z,9.37
2018-12-08T17:44:39.031Z,13.60
2018-12-08T17:47:07.553Z,10.00
2018-12-08T17:49:36.101Z,13.43
2018-12-08T17:52:04.723Z,8.60
2018-12-08T17:54:33.223Z,5.97
2018-12-08T17:57:01.786Z,6.87
2018-12-08T17:59:30.934Z,8.60
2018-12-08T18:01:59.613Z,6.13
2018-12-08T18:04:28.843Z,9.70
2018-12-08T18:06:57.415Z,7.37
2018-12-08T18:09:25.940Z,9.27
2018-12-08T18:11:54.383Z,8.07
2018-12-08T18:14:22.862Z,7.33
2018-12-08T18:16:52.013Z,11.47
2018-12-08T18:19:20.557Z,7.07
2018-12-08T18:21:49.093Z,6.33
2018-12-08T18:24:18.174Z,5.20
2018-12-08T18:26:46.740Z,9.23
2018-12-08T18:29:15.243Z,7.50
2018-12-08T18:31:43.774Z,6.70
2018-12-08T18:34:12.689Z,4.97
2018-12-08T18:36:41.159Z,5.40
2018-12-08T18:39:09.776Z,6.87
2018-12-08T18:41:38.359Z,6.37
2018-12-08T18:44:06.829Z,3.37
2018-12-08T18:46:35.351Z,6.73
2018-12-08T18:49:03.833Z,3.03
2018-12-08T18:51:32.318Z,6.73
2018-12-08T18:54:01.543Z,7.13
2018-12-08T18:56:30.139Z,5.30
2018-12-08T18:58:58.623Z,3.37
2018-12-08T19:01:27.243Z,4.57
2018-12-08T19:03:55.741Z,3.83
2018-12-08T19:06:24.431Z,3.53
2018-12-08T19:08:52.946Z,4.43
2018-12-08T19:11:21.680Z,5.07
2018-12-08T19:13:50.588Z,2.40
2018-12-08T19:16:21.771Z,2.07
2018-12-08T19:18:50.602Z,4.13
2018-12-08T19:21:19.147Z,2.33
2018-12-08T19:23:47.925Z,2.30
2018-12-08T19:26:16.811Z,2.20
2018-12-08T19:28:45.362Z,2.90
2018-12-08T19:31:13.854Z,2.30
2018-12-08T19:33:42.420Z,2.63
2018-12-08T19:36:11.220Z,1.60
2018-12-08T19:38:39.824Z,5.50
2018-12-08T19:41:08.404Z,2.43
2018-12-08T19:43:36.960Z,3.60
2018-12-08T19:46:05.863Z,2.37
2018-12-08T19:48:34.531Z,2.23
2018-12-08T19:51:04.282Z,2.87
2018-12-08T19:53:33.011Z,2.13
2018-12-08T19:56:01.478Z,2.80
2018-12-08T19:58:30.180Z,2.80
2018-12-08T20:00:58.788Z,2.37
2018-12-08T20:03:27.310Z,3.03
2018-12-08T20:05:55.788Z,3.00
2018-12-08T20:08:24.438Z,2.90
2018-12-08T20:10:52.989Z,2.20
2018-12-08T20:13:22.076Z,1.40
2018-12-08T20:15:50.598Z,2.47
2018-12-08T20:18:19.100Z,1.70
2018-12-08T20:20:47.621Z,2.33
2018-12-08T20:23:17.100Z,2.67
2018-12-08T20:25:45.588Z,3.60
2018-12-08T20:28:14.257Z,3.70
2018-12-08T20:30:42.877Z,3.97
2018-12-08T20:33:11.381Z,2.43
2018-12-08T20:35:40.143Z,2.93
2018-12-08T20:38:09.673Z,3.90
2018-12-08T20:40:38.361Z,2.80
2018-12-08T20:43:06.922Z,2.57
2018-12-08T20:45:35.440Z,1.83
2018-12-08T20:48:03.974Z,2.47
2018-12-08T20:50:32.502Z,3.43
2018-12-08T20:53:01.027Z,3.07
2018-12-08T20:55:29.636Z,1.90
2018-12-08T20:57:58.215Z,3.97
2018-12-08T21:00:26.729Z,2.70
2018-12-08T21:02:55.226Z,3.53
2018-12-08T21:05:23.737Z,2.03
2018-12-08T21:07:52.384Z,1.87
2018-12-08T21:10:20.940Z,1.73
2018-12-08T21:12:49.440Z,2.33
2018-12-08T21:15:18.291Z,5.13
2018-12-08T21:17:46.803Z,2.50
2018-12-08T21:20:15.377Z,3.33
2018-12-08T21:22:43.990Z,2.73
2018-12-08T21:25:12.701Z,7.43
2018-12-08T21:27:41.308Z,6.80
2018-12-08T21:30:09.903Z,4.77
2018-12-08T21:32:38.446Z,3.47
2018-12-08T21:35:07.190Z,5.97
2018-12-08T21:37:35.667Z,6.80
2018-12-08T21:40:07.376Z,6.03
2018-12-08T21:42:35.824Z,5.47
2018-12-08T21:45:04.532Z,4.33
2018-12-08T21:47:33.185Z,2.83
2018-12-08T21:50:01.700Z,5.03
2018-12-08T21:52:30.179Z,5.23
2018-12-08T21:54:58.678Z,3.03
2018-12-08T21:57:27.228Z,2.93
2018-12-08T21:59:55.688Z,2.23
2018-12-08T22:02:24.333Z,5.90
2018-12-08T22:04:52.797Z,4.27
2018-12-08T22:07:21.763Z,2.03
2018-12-08T22:09:50.353Z,7.60
2018-12-08T22:12:18.865Z,2.57
2018-12-08T22:14:52.564Z,3.43
2018-12-08T22:17:21.191Z,5.33
2018-12-08T22:19:50.507Z,4.87
2018-12-08T22:22:18.994Z,7.23
2018-12-08T22:24:47.600Z,4.60
2018-12-08T22:27:16.114Z,8.60
2018-12-08T22:29:44.561Z,6.73
2018-12-08T22:32:13.183Z,7.53
2018-12-08T22:34:41.711Z,6.30
2018-12-08T22:37:10.345Z,5.80
2018-12-08T22:39:38.811Z,6.83
2018-12-08T22:42:07.351Z,9.07
2018-12-08T22:44:35.861Z,7.97
2018-12-08T22:47:04.489Z,8.07
2018-12-08T22:49:32.987Z,4.50
2018-12-08T22:52:01.505Z,8.53
2018-12-08T22:54:30.057Z,8.40
2018-12-08T22:56:58.549Z,12.00
2018-12-08T22:59:27.149Z,12.17
2018-12-08T23:01:55.685Z,11.23
2018-12-08T23:04:24.331Z,13.10
2018-12-08T23:07:02.260Z,12.73
2018-12-08T23:09:30.783Z,13.80
2018-12-08T23:11:59.308Z,11.10
2018-12-08T23:14:28.022Z,8.73
2018-12-08T23:16:56.516Z,16.07
2018-12-08T23:19:25.078Z,12.00
2018-12-08T23:21:53.710Z,14.10
2018-12-08T23:24:22.402Z,12.67
2018-12-08T23:26:50.934Z,19.33
2018-12-08T23:29:19.432Z,16.03
2018-12-08T23:31:47.969Z,20.70
2018-12-08T23:34:16.530Z,11.53
2018-12-08T23:36:45.129Z,11.17
2018-12-08T23:39:14.516Z,14.80
2018-12-08T23:41:43.000Z,13.83
2018-12-08T23:44:11.466Z,17.47
2018-12-08T23:46:40.047Z,12.37
2018-12-08T23:51:59.113Z,21.90
2018-12-08T23:54:27.589Z,15.20
2018-12-08T23:56:56.092Z,10.40
2018-12-08T23:59:24.694Z,14.17
